Terminal Aerodrome Forecast
Issued by NWS

Home | Current Version | Previous Version | Text Only | Print | Product List | Glossary On
Versions: 1 2 3 4 5 6 7 8 9 10 11 12 13 14 15 16 17 18 19
000
FTUS44 KLZK 281100
TAFLIT
TAF
KLIT 281120Z 2812/2912 04010KT P6SM -SHRA BKN050 OVC100
     FM281500 03011G18KT P6SM -SHRA SCT015 BKN035
     FM281900 02011KT P6SM VCSH SCT020 BKN040
     FM290000 35009KT P6SM -SHRA SCT015 BKN035
     FM290500 33003KT P6SM BKN050=

USA.gov is the U.S. government's official web portal to all federal, state and local government web resources and services.